Time;durP1;ratioP1;P1;durP2;ratioP2;P2;SDS_P1;SDS_P2;PMS_P1;PMS_P2;Temp;Humidity;BMP_temperature;BMP_pressure;BME280_temperature;BME280_humidity;BME280_pressure;Samples;Min_cycle;Max_cycle;Signal;HPM_P1;HPM_P2
2022/06/01 00:02:08;;;;;;;8.68;6.50;;;22.10;57.00;;;;;;5087159;28;20088;-81
2022/06/01 00:04:35;;;;;;;8.30;6.35;;;22.10;57.90;;;;;;5104348;28;20383;-81
2022/06/01 00:07:00;;;;;;;8.50;6.32;;;22.10;58.20;;;;;;5110844;28;20378;-79
2022/06/01 00:09:27;;;;;;;7.18;5.65;;;22.00;57.60;;;;;;5086275;28;20033;-79
2022/06/01 00:11:52;;;;;;;8.60;5.53;;;22.00;58.20;;;;;;5106478;28;20023;-81
2022/06/01 00:14:18;;;;;;;8.70;6.70;;;21.80;58.50;;;;;;5093252;28;20129;-81
2022/06/01 00:16:45;;;;;;;7.38;6.15;;;21.70;57.70;;;;;;5105122;28;20108;-81
2022/06/01 00:19:12;;;;;;;7.57;6.00;;;21.40;59.00;;;;;;5094935;28;20054;-80
2022/06/01 00:22:11;;;;;;;8.32;6.47;;;21.20;59.80;;;;;;5073949;28;20016;-81
2022/06/01 00:24:23;;;;;;;7.80;6.15;;;21.40;59.20;;;;;;5108037;28;20043;-80
2022/06/01 00:26:50;;;;;;;9.18;6.43;;;21.70;58.40;;;;;;5114092;28;20030;-81
2022/06/01 00:29:16;;;;;;;8.50;6.20;;;21.90;58.10;;;;;;5113223;28;20036;-79
2022/06/01 00:31:43;;;;;;;9.95;7.00;;;21.80;57.60;;;;;;5096110;28;20394;-81
2022/06/01 00:34:08;;;;;;;8.65;6.30;;;21.70;57.90;;;;;;5113991;28;20071;-81
2022/06/01 00:36:34;;;;;;;8.00;6.47;;;21.20;59.50;;;;;;5096647;28;20050;-81
2022/06/01 00:39:00;;;;;;;8.73;6.20;;;21.10;59.20;;;;;;5072196;28;20081;-80
2022/06/01 00:41:29;;;;;;;7.30;6.15;;;21.00;59.90;;;;;;5084144;28;20031;-81
2022/06/01 00:43:55;;;;;;;9.63;6.83;;;21.00;59.60;;;;;;5104178;28;20036;-82
2022/06/01 00:46:21;;;;;;;7.93;6.28;;;21.20;58.70;;;;;;5091190;28;20037;-80
2022/06/01 00:48:52;;;;;;;9.55;6.85;;;21.20;58.50;;;;;;5095913;28;20481;-80
2022/06/01 00:51:23;;;;;;;8.50;6.55;;;21.00;58.50;;;;;;5114180;28;20122;-80
2022/06/01 00:53:51;;;;;;;8.23;6.75;;;20.80;59.60;;;;;;5112154;28;20441;-81
2022/06/01 00:56:22;;;;;;;8.60;7.03;;;20.80;59.90;;;;;;5094407;28;20032;-82
2022/06/01 00:58:51;;;;;;;9.18;7.30;;;20.70;59.70;;;;;;5092089;28;20024;-81
2022/06/01 01:01:20;;;;;;;10.68;7.93;;;21.10;59.40;;;;;;5085517;28;20027;-80
2022/06/01 01:03:49;;;;;;;8.82;6.78;;;21.00;58.80;;;;;;5089237;28;20055;-81
2022/06/01 01:06:27;;;;;;;9.60;6.65;;;20.90;60.10;;;;;;5113705;28;20019;-81
2022/06/01 01:08:54;;;;;;;10.32;7.68;;;20.90;59.40;;;;;;5113993;28;20382;-82
2022/06/01 01:11:25;;;;;;;9.68;6.82;;;21.00;59.30;;;;;;5094180;28;20386;-82
2022/06/01 01:13:53;;;;;;;13.38;6.70;;;21.10;58.90;;;;;;5095953;28;20074;-80
2022/06/01 01:16:20;;;;;;;9.55;6.95;;;21.10;58.80;;;;;;5091377;28;20084;-81
2022/06/01 01:18:47;;;;;;;9.82;7.47;;;21.10;58.90;;;;;;5113862;28;20019;-81
2022/06/01 01:21:44;;;;;;;10.32;7.57;;;21.20;58.90;;;;;;5097000;28;20059;-81
2022/06/01 01:24:29;;;;;;;8.07;5.90;;;21.30;58.60;;;;;;5092492;28;20447;-79
2022/06/01 01:26:56;;;;;;;9.15;6.90;;;21.20;59.00;;;;;;5078613;28;20426;-79
2022/06/01 01:29:36;;;;;;;11.60;7.57;;;20.70;61.40;;;;;;5088116;28;20028;-79
2022/06/01 01:32:05;;;;;;;10.52;7.32;;;20.80;61.30;;;;;;5101917;28;20030;-81
2022/06/01 01:34:32;;;;;;;10.60;7.88;;;21.10;60.60;;;;;;5095080;28;20035;-81
2022/06/01 01:37:02;;;;;;;10.35;7.32;;;21.20;59.60;;;;;;5112256;28;20343;-80
2022/06/01 01:39:32;;;;;;;9.87;7.50;;;21.30;59.90;;;;;;5079021;28;20497;-81
2022/06/01 01:41:58;;;;;;;8.57;6.53;;;21.50;59.30;;;;;;5093493;28;20023;-81
2022/06/01 01:44:30;;;;;;;10.50;6.70;;;21.70;59.00;;;;;;5095227;28;20180;-80
2022/06/01 01:46:56;;;;;;;9.70;6.90;;;21.60;58.70;;;;;;5096547;28;20042;-81
2022/06/01 01:49:30;;;;;;;11.13;7.43;;;21.60;59.00;;;;;;5092422;28;20039;-81
2022/06/01 01:52:00;;;;;;;8.98;7.65;;;21.50;59.80;;;;;;5096751;28;20022;-82
2022/06/01 01:54:32;;;;;;;11.02;7.47;;;21.50;59.90;;;;;;5085975;28;21657;-82
2022/06/01 01:57:22;;;;;;;8.57;7.28;;;21.40;59.80;;;;;;5079126;28;20035;-81
2022/06/01 02:00:04;;;;;;;9.60;7.30;;;21.30;60.30;;;;;;5081841;28;20081;-81
2022/06/01 02:02:50;;;;;;;12.20;8.07;;;21.30;60.40;;;;;;5101427;28;20115;-81
2022/06/01 02:08:41;;;;;;;10.02;7.80;;;21.40;60.60;;;;;;5106653;28;20055;-80
2022/06/01 02:14:25;;;;;;;9.52;8.23;;;21.40;60.70;;;;;;5106139;28;20027;-80
2022/06/01 02:17:21;;;;;;;9.93;7.90;;;21.20;61.50;;;;;;5093958;28;20455;-81
2022/06/01 02:19:50;;;;;;;10.57;8.20;;;21.30;61.00;;;;;;5085029;28;20096;-82
2022/06/01 02:22:16;;;;;;;11.45;8.73;;;21.30;61.20;;;;;;5093920;28;20030;-81
2022/06/01 02:24:44;;;;;;;11.35;8.55;;;21.50;60.70;;;;;;5102761;28;20031;-82
2022/06/01 02:27:11;;;;;;;10.43;8.60;;;21.50;60.70;;;;;;5093793;28;20066;-81
2022/06/01 02:29:52;;;;;;;10.73;8.75;;;21.70;60.70;;;;;;5084316;28;20024;-82
2022/06/01 02:32:19;;;;;;;12.52;9.30;;;21.70;60.40;;;;;;5112150;28;20055;-81
2022/06/01 02:34:46;;;;;;;10.50;8.55;;;21.90;60.50;;;;;;5112020;28;20036;-81
2022/06/01 02:37:15;;;;;;;9.63;7.88;;;21.60;61.50;;;;;;5114074;28;20441;-81
2022/06/01 02:39:44;;;;;;;10.95;8.68;;;21.50;61.60;;;;;;5098636;28;20428;-82
2022/06/01 02:42:25;;;;;;;13.40;10.40;;;21.40;62.20;;;;;;5079218;28;20043;-78
2022/06/01 02:44:56;;;;;;;14.25;9.88;;;21.70;62.30;;;;;;5089408;28;20042;-81
2022/06/01 02:47:23;;;;;;;14.43;10.43;;;21.80;62.40;;;;;;5113325;28;20361;-91
2022/06/01 02:49:49;;;;;;;11.23;9.05;;;22.00;61.60;;;;;;5095172;28;20027;-84
2022/06/01 02:52:15;;;;;;;11.57;9.75;;;22.00;61.70;;;;;;5094533;28;20401;-91
2022/06/01 02:54:41;;;;;;;12.45;8.75;;;22.00;61.50;;;;;;5094340;28;20466;-90
2022/06/01 02:57:07;;;;;;;11.88;9.20;;;21.90;62.00;;;;;;5079320;28;20030;-91
2022/06/01 02:59:33;;;;;;;13.93;10.93;;;20.80;65.00;;;;;;5095489;28;20020;-79
2022/06/01 03:01:59;;;;;;;12.48;10.10;;;20.00;68.50;;;;;;5095463;28;20469;-86
2022/06/01 03:04:29;;;;;;;13.43;10.48;;;19.30;71.30;;;;;;5089310;28;20055;-78
2022/06/01 03:06:56;;;;;;;15.00;11.63;;;19.60;71.40;;;;;;5094216;28;20028;-80
2022/06/01 03:09:22;;;;;;;15.18;11.38;;;20.20;69.30;;;;;;5095389;28;20035;-91
2022/06/01 03:11:48;;;;;;;21.25;13.05;;;20.80;67.10;;;;;;5109169;28;20032;-85
2022/06/01 03:14:14;;;;;;;22.50;16.38;;;21.00;66.80;;;;;;5112135;28;20032;-84
2022/06/01 03:32:54;;;;;;;19.63;14.02;;;20.80;70.60;;;;;;5079653;27;1508008;-85
2022/06/01 03:35:23;;;;;;;34.97;20.00;;;20.40;74.10;;;;;;5093140;28;20043;-87
2022/06/01 03:37:49;;;;;;;52.38;23.77;;;20.50;75.00;;;;;;5093100;28;20024;-86
2022/06/01 03:40:17;;;;;;;39.10;21.42;;;21.10;73.40;;;;;;5092713;28;20055;-86
2022/06/01 03:42:42;;;;;;;30.08;18.20;;;21.70;71.30;;;;;;5111065;28;20035;-86
2022/06/01 03:47:55;;;;;;;24.85;17.33;;;22.20;69.60;;;;;;5111073;28;20482;-87
2022/06/01 03:50:23;;;;;;;24.45;17.50;;;22.10;70.10;;;;;;5092977;28;20024;-85
2022/06/01 03:52:50;;;;;;;38.08;20.63;;;21.40;72.80;;;;;;5092464;28;20035;-88
2022/06/01 03:55:16;;;;;;;37.00;21.75;;;21.40;73.30;;;;;;5092695;28;20031;-88
2022/06/01 03:57:43;;;;;;;28.90;18.58;;;21.90;71.70;;;;;;5110982;28;20024;-87
2022/06/01 04:00:13;;;;;;;40.65;22.52;;;22.20;71.40;;;;;;5092690;28;20464;-88
2022/06/01 04:02:40;;;;;;;31.85;20.75;;;22.30;70.70;;;;;;5092709;28;20032;-88
2022/06/01 04:05:06;;;;;;;26.42;16.98;;;22.60;69.60;;;;;;5092731;28;20039;-88
2022/06/01 04:07:32;;;;;;;44.03;22.55;;;22.80;69.10;;;;;;5093072;28;20028;-95
2022/06/01 04:09:58;;;;;;;31.05;21.15;;;22.80;68.60;;;;;;5093160;28;20436;-86
2022/06/01 04:12:24;;;;;;;31.30;20.85;;;22.80;68.80;;;;;;5092723;28;20032;-87
2022/06/01 04:18:15;;;;;;;34.95;21.30;;;22.60;69.20;;;;;;5110284;28;20081;-85
2022/06/01 04:20:41;;;;;;;35.03;21.23;;;22.60;69.10;;;;;;5092011;28;20081;-85
2022/06/01 04:23:13;;;;;;;29.58;19.30;;;22.70;69.60;;;;;;5091995;28;20028;-86
2022/06/01 04:29:37;;;;;;;31.80;20.38;;;23.20;68.30;;;;;;5027108;28;20069;-93
2022/06/01 04:45:52;;;;;;;;;;;23.80;67.00;;;;;;5015335;28;20060;-89
2022/06/01 04:51:53;;;;;;;18.38;12.60;;;24.20;67.40;;;;;;5014408;28;20497;-85
2022/06/01 04:54:40;;;;;;;15.35;11.50;;;24.40;66.80;;;;;;4998190;28;20033;-92
2022/06/01 05:00:45;;;;;;;15.90;12.38;;;24.00;67.00;;;;;;4957947;28;20082;-91
2022/06/01 05:03:14;;;;;;;15.77;11.25;;;23.30;69.40;;;;;;4996888;28;20030;-86
2022/06/01 05:05:46;;;;;;;16.45;11.50;;;23.20;70.60;;;;;;5070746;28;20020;-85
2022/06/01 05:08:16;;;;;;;25.10;16.30;;;23.20;71.00;;;;;;5064969;28;20059;-91
2022/06/01 05:10:42;;;;;;;17.98;14.10;;;23.50;70.00;;;;;;5058139;28;20544;-90
2022/06/01 05:13:59;;;;;;;29.27;17.60;;;23.90;68.60;;;;;;5058138;28;20032;-87
2022/06/01 05:16:31;;;;;;;21.27;14.40;;;24.30;67.70;;;;;;5054674;28;20092;-89
2022/06/01 05:18:57;;;;;;;16.23;12.75;;;24.50;66.60;;;;;;5054713;28;20025;-90
2022/06/01 05:21:46;;;;;;;18.40;14.32;;;24.60;66.10;;;;;;5051843;28;20037;-90
2022/06/01 05:24:12;;;;;;;27.25;17.60;;;24.60;66.70;;;;;;5053643;28;20083;-89
2022/06/01 05:26:37;;;;;;;22.83;15.05;;;24.60;66.90;;;;;;5054810;28;20029;-88
2022/06/01 05:29:23;;;;;;;23.55;16.40;;;24.60;67.40;;;;;;5054150;28;20021;-95
2022/06/01 05:31:49;;;;;;;22.50;16.20;;;24.70;66.80;;;;;;5059041;23;20076;-91
2022/06/01 05:34:15;;;;;;;21.83;15.10;;;24.90;66.10;;;;;;5054575;28;20079;-90
2022/06/01 05:36:41;;;;;;;20.10;15.10;;;24.90;65.90;;;;;;5057335;28;20424;-94
2022/06/01 05:39:22;;;;;;;26.67;17.65;;;25.00;66.00;;;;;;4707969;28;9999974;-94
2022/06/01 05:41:48;;;;;;;17.95;13.55;;;25.10;65.50;;;;;;5056430;28;20032;-90
2022/06/01 05:44:14;;;;;;;16.98;12.73;;;25.00;66.00;;;;;;5072864;28;20025;-88
2022/06/01 05:47:22;;;;;;;18.23;14.23;;;24.60;66.10;;;;;;5074721;28;20024;-88
2022/06/01 05:49:51;;;;;;;20.50;15.15;;;24.10;68.30;;;;;;5056030;28;20115;-84
2022/06/01 05:52:18;;;;;;;20.00;13.48;;;24.10;68.40;;;;;;5056723;28;20031;-86
2022/06/01 05:54:59;;;;;;;19.77;13.95;;;24.10;68.00;;;;;;5057042;28;20028;-89
2022/06/01 05:57:28;;;;;;;22.10;15.63;;;24.30;67.50;;;;;;5074183;28;20063;-85
2022/06/01 05:59:53;;;;;;;20.15;14.35;;;24.20;67.40;;;;;;5074099;28;20063;-90
2022/06/01 06:02:19;;;;;;;19.13;14.20;;;24.20;67.80;;;;;;5056514;28;20131;-80
2022/06/01 06:04:45;;;;;;;21.13;15.27;;;24.40;67.00;;;;;;5074805;28;20031;-82
2022/06/01 06:07:10;;;;;;;20.90;14.95;;;24.40;67.10;;;;;;5074194;28;20108;-86
2022/06/01 06:09:36;;;;;;;20.95;15.55;;;24.50;66.90;;;;;;5074067;28;20036;-82
2022/06/01 06:12:02;;;;;;;19.92;15.15;;;24.40;67.90;;;;;;5074291;28;20085;-86
2022/06/01 06:14:27;;;;;;;21.67;14.68;;;24.50;67.20;;;;;;5073866;28;20024;-80
2022/06/01 06:16:53;;;;;;;22.23;14.48;;;24.60;66.70;;;;;;5073606;28;20052;-79
2022/06/01 06:19:20;;;;;;;18.17;13.30;;;24.50;67.40;;;;;;5073714;28;20035;-81
2022/06/01 06:21:46;;;;;;;27.40;18.30;;;24.40;67.90;;;;;;5057086;28;20082;-89
2022/06/01 06:24:15;;;;;;;27.70;18.17;;;23.90;69.70;;;;;;5056441;28;20070;-78
2022/06/01 06:26:46;;;;;;;25.35;18.30;;;23.80;69.50;;;;;;5056264;28;20485;-81
2022/06/01 06:29:13;;;;;;;30.58;20.60;;;23.70;70.00;;;;;;5055538;28;20025;-78
2022/06/01 06:31:43;;;;;;;31.92;19.77;;;23.80;69.10;;;;;;5073229;28;20035;-87
2022/06/01 06:34:09;;;;;;;30.08;19.65;;;24.00;69.20;;;;;;5056003;28;20045;-90
2022/06/01 06:36:35;;;;;;;28.80;18.63;;;24.20;68.70;;;;;;5056460;28;20131;-92
2022/06/01 06:39:01;;;;;;;27.58;19.17;;;24.00;69.20;;;;;;5056029;28;20052;-78
2022/06/01 06:41:27;;;;;;;25.75;17.77;;;23.90;70.10;;;;;;5056077;28;20032;-78
2022/06/01 06:43:52;;;;;;;25.15;18.13;;;24.10;70.00;;;;;;5074044;28;20022;-78
2022/06/01 06:46:21;;;;;;;26.15;17.20;;;23.90;70.60;;;;;;5075898;28;20034;-86
2022/06/01 06:48:48;;;;;;;33.80;20.15;;;23.80;70.80;;;;;;5073357;28;20089;-78
2022/06/01 06:51:14;;;;;;;26.13;17.15;;;23.60;71.30;;;;;;5055226;28;20396;-86
2022/06/01 06:53:40;;;;;;;36.63;20.85;;;23.80;71.90;;;;;;5055839;28;20031;-79
2022/06/01 06:56:06;;;;;;;31.70;21.10;;;24.20;71.10;;;;;;5054881;28;20032;-81
2022/06/01 06:58:33;;;;;;;26.08;17.63;;;24.60;69.80;;;;;;5055590;28;20024;-81
2022/06/01 07:00:58;;;;;;;22.33;16.02;;;25.00;68.60;;;;;;5073080;28;20039;-81
2022/06/01 07:03:25;;;;;;;22.00;15.43;;;25.30;68.10;;;;;;5073953;28;20016;-81
2022/06/01 07:06:08;;;;;;;27.98;18.42;;;25.20;68.40;;;;;;5074272;28;20159;-80
2022/06/01 07:08:35;;;;;;;23.67;16.50;;;24.80;69.40;;;;;;5073636;28;20077;-80
2022/06/01 07:11:01;;;;;;;24.70;16.08;;;24.40;69.90;;;;;;5073393;28;20028;-83
2022/06/01 07:13:28;;;;;;;25.10;17.33;;;24.40;69.30;;;;;;5055275;28;20503;-85
2022/06/01 07:16:14;;;;;;;23.02;16.83;;;24.60;69.10;;;;;;5053727;28;20503;-76
2022/06/01 07:18:48;;;;;;;24.05;17.02;;;24.90;67.90;;;;;;5071682;28;20023;-77
2022/06/01 07:21:16;;;;;;;22.08;16.40;;;24.90;68.10;;;;;;5054335;28;20060;-87
2022/06/01 07:23:42;;;;;;;24.23;16.88;;;25.10;67.20;;;;;;5072450;28;20023;-88
2022/06/01 07:26:11;;;;;;;19.95;15.07;;;25.30;67.20;;;;;;5054820;28;20111;-78
2022/06/01 07:28:38;;;;;;;21.45;15.50;;;25.20;68.10;;;;;;5072379;28;20451;-78
2022/06/01 07:31:04;;;;;;;17.75;13.48;;;25.10;68.50;;;;;;5073014;28;20021;-79
2022/06/01 07:33:30;;;;;;;18.80;14.15;;;25.00;68.20;;;;;;5055567;28;20451;-80
2022/06/01 07:35:58;;;;;;;19.38;14.02;;;24.90;69.10;;;;;;5055476;28;20021;-83
2022/06/01 07:43:58;;;;;;;18.60;13.90;;;24.70;69.50;;;;;;4286482;28;10001141;-83
2022/06/01 07:46:24;;;;;;;16.27;12.45;;;24.90;70.20;;;;;;4956210;28;20038;-82
2022/06/01 07:48:50;;;;;;;18.58;13.45;;;24.80;70.70;;;;;;4956024;28;20045;-84
2022/06/01 07:51:17;;;;;;;14.95;11.50;;;24.90;69.70;;;;;;4972644;28;20047;-88
2022/06/01 07:56:18;;;;;;;14.70;11.85;;;25.20;69.50;;;;;;5669535;22;20392;-84
2022/06/01 07:58:44;;;;;;;12.73;9.40;;;25.60;68.00;;;;;;5035493;28;20025;-83
2022/06/01 08:01:10;;;;;;;13.25;10.00;;;25.80;68.60;;;;;;5034435;28;20037;-80
2022/06/01 08:03:36;;;;;;;12.25;9.77;;;26.00;68.20;;;;;;5034740;28;20021;-82
2022/06/01 08:06:02;;;;;;;13.80;10.75;;;25.90;68.50;;;;;;5035155;28;20032;-87
2022/06/01 08:08:28;;;;;;;12.15;8.48;;;25.90;69.20;;;;;;5054732;28;20028;-81
2022/06/01 08:10:53;;;;;;;13.55;10.23;;;25.70;67.30;;;;;;5038360;28;20033;-81
2022/06/01 08:13:19;;;;;;;12.25;9.25;;;25.30;69.00;;;;;;5038673;28;20025;-79
2022/06/01 08:15:48;;;;;;;10.75;8.55;;;25.60;68.40;;;;;;5056353;28;20033;-79
2022/06/01 08:18:17;;;;;;;12.30;9.20;;;25.40;68.70;;;;;;5056123;28;20165;-85
2022/06/01 08:20:44;;;;;;;10.70;8.07;;;25.20;69.70;;;;;;5056070;28;20374;-81
2022/06/01 08:23:10;;;;;;;12.25;8.90;;;25.50;69.70;;;;;;5056027;28;20427;-82
2022/06/01 08:25:37;;;;;;;11.10;9.00;;;26.30;69.30;;;;;;5038365;28;20021;-83
2022/06/01 08:28:04;;;;;;;10.55;8.43;;;26.90;68.00;;;;;;5038224;28;20362;-81
2022/06/01 08:30:31;;;;;;;11.82;9.30;;;27.40;65.10;;;;;;5038099;28;20366;-84
2022/06/01 08:32:57;;;;;;;12.88;9.00;;;27.70;65.50;;;;;;5038371;28;20044;-87
2022/06/01 08:35:38;;;;;;;11.60;8.60;;;27.90;64.80;;;;;;5038310;28;20017;-87
2022/06/01 08:38:05;;;;;;;9.43;7.55;;;28.00;63.90;;;;;;5037818;28;20029;-78
2022/06/01 08:44:35;;;;;;;11.27;8.35;;;28.00;65.00;;;;;;5132156;28;20127;-89
2022/06/01 08:47:18;;;;;;;9.52;7.30;;;27.70;63.70;;;;;;5132227;28;20485;-81
2022/06/01 08:49:45;;;;;;;11.02;7.70;;;27.60;65.10;;;;;;5131299;28;20030;-89
2022/06/01 08:52:11;;;;;;;9.27;7.43;;;27.70;63.80;;;;;;5113018;28;20051;-82
2022/06/01 08:54:37;;;;;;;9.55;7.70;;;27.70;64.60;;;;;;5112829;28;20027;-78
2022/06/01 08:57:12;;;;;;;10.13;8.02;;;27.50;65.30;;;;;;5131089;28;20023;-78
2022/06/01 09:00:04;;;;;;;8.40;6.82;;;27.70;65.60;;;;;;5131096;28;20106;-79
2022/06/01 09:03:07;;;;;;;9.68;6.85;;;27.70;64.90;;;;;;5112440;28;20027;-86
2022/06/01 09:05:52;;;;;;;10.73;6.63;;;27.60;64.60;;;;;;5112923;28;20019;-77
2022/06/01 09:08:29;;;;;;;10.05;6.80;;;27.60;65.40;;;;;;5130991;28;20022;-79
2022/06/01 09:10:58;;;;;;;7.13;6.05;;;27.60;65.50;;;;;;5130867;28;20034;-83
2022/06/01 09:13:30;;;;;;;7.32;6.22;;;27.50;63.50;;;;;;5112775;28;20065;-82
2022/06/01 09:16:17;;;;;;;8.02;5.32;;;27.70;64.10;;;;;;5113960;28;20027;-81
2022/06/01 09:18:48;;;;;;;6.38;5.15;;;27.90;64.50;;;;;;5112811;28;20043;-86
2022/06/01 09:24:21;;;;;;;6.25;4.72;;;27.40;62.00;;;;;;5131017;28;20499;-81
2022/06/01 09:26:54;;;;;;;7.50;5.07;;;27.10;63.20;;;;;;5112683;28;20035;-80
2022/06/01 09:29:27;;;;;;;7.13;4.63;;;27.40;65.00;;;;;;5113275;28;20473;-84
2022/06/01 09:32:05;;;;;;;7.15;4.40;;;27.20;63.90;;;;;;5097499;28;20066;-82
2022/06/01 09:34:44;;;;;;;7.22;4.88;;;27.40;62.90;;;;;;5092851;28;20016;-83
2022/06/01 09:37:18;;;;;;;7.43;4.40;;;27.80;63.60;;;;;;5093203;28;20036;-79
2022/06/01 09:40:39;;;;;;;6.95;4.50;;;28.10;63.10;;;;;;5110255;28;20122;-93
2022/06/01 09:43:05;;;;;;;5.53;4.50;;;28.40;61.50;;;;;;5070858;28;20431;-88
2022/06/01 09:45:46;;;;;;;5.22;3.63;;;28.60;61.60;;;;;;5091854;28;20470;-84
2022/06/01 09:48:11;;;;;;;5.60;3.65;;;28.10;58.70;;;;;;5092181;28;20019;-87
2022/06/01 09:50:40;;;;;;;5.75;3.80;;;28.20;60.50;;;;;;5086090;28;20016;-84
2022/06/01 09:53:16;;;;;;;5.25;3.55;;;28.70;60.60;;;;;;5077929;28;20051;-86
2022/06/01 09:56:00;;;;;;;5.32;3.55;;;29.00;58.70;;;;;;5078149;28;20036;-83
2022/06/01 10:06:54;;;;;;;10.30;4.05;;;28.70;59.30;;;;;;5096490;28;20113;-82
2022/06/01 10:09:25;;;;;;;4.90;3.47;;;28.70;59.10;;;;;;5077486;28;20490;-82
2022/06/01 10:11:54;;;;;;;5.32;3.17;;;28.70;58.10;;;;;;5095458;28;20035;-80
2022/06/01 10:14:22;;;;;;;4.60;3.45;;;28.60;56.60;;;;;;5077502;28;20111;-85
2022/06/01 10:17:05;;;;;;;4.65;3.15;;;28.70;58.10;;;;;;5077454;28;20493;-80
2022/06/01 10:19:43;;;;;;;5.57;3.30;;;29.00;57.60;;;;;;5095078;28;20063;-79
2022/06/01 10:22:24;;;;;;;5.70;3.00;;;29.10;56.40;;;;;;5095184;28;20024;-79
2022/06/01 10:25:07;;;;;;;5.15;3.38;;;29.00;56.30;;;;;;5077458;28;20039;-79
2022/06/01 10:27:42;;;;;;;5.05;3.10;;;29.00;55.00;;;;;;5095132;28;20020;-79
2022/06/01 10:30:31;;;;;;;6.30;2.80;;;29.10;57.00;;;;;;5077188;28;20027;-77
2022/06/01 10:33:03;;;;;;;5.40;3.23;;;29.20;55.80;;;;;;5096609;28;20144;-84
2022/06/01 10:35:46;;;;;;;7.53;3.50;;;29.30;56.70;;;;;;5077107;28;20276;-82
2022/06/01 10:38:41;;;;;;;3.92;2.92;;;29.40;57.20;;;;;;5078122;28;20479;-81
2022/06/01 10:41:09;;;;;;;6.55;3.35;;;29.70;57.10;;;;;;5076844;28;20044;-84
2022/06/01 10:44:08;;;;;;;5.78;3.28;;;29.90;57.40;;;;;;5077388;28;20020;-81
2022/06/01 10:46:43;;;;;;;5.18;3.13;;;30.30;56.20;;;;;;5094816;28;20039;-80
2022/06/01 10:49:15;;;;;;;5.18;3.33;;;30.20;54.50;;;;;;5076777;28;20050;-79
2022/06/01 10:51:41;;;;;;;4.75;3.03;;;30.30;55.10;;;;;;5094592;28;20077;-81
2022/06/01 10:54:15;;;;;;;6.20;3.13;;;30.40;54.10;;;;;;5094919;28;20023;-85
2022/06/01 10:56:41;;;;;;;4.95;3.00;;;30.20;54.70;;;;;;5094732;28;20436;-81
2022/06/01 10:59:12;;;;;;;5.00;3.10;;;30.10;55.20;;;;;;5077995;28;20389;-83
2022/06/01 11:01:41;;;;;;;4.45;2.92;;;30.30;55.30;;;;;;5076118;28;20103;-81
2022/06/01 11:04:12;;;;;;;5.30;3.10;;;30.40;54.40;;;;;;5076409;28;20077;-94
2022/06/01 11:06:57;;;;;;;5.50;2.85;;;30.00;54.50;;;;;;5077626;28;20028;-86
2022/06/01 11:09:34;;;;;;;4.57;2.65;;;30.10;54.90;;;;;;5094671;28;20501;-80
2022/06/01 11:12:26;;;;;;;5.15;2.70;;;29.80;54.60;;;;;;5076838;28;20127;-82
2022/06/01 11:14:54;;;;;;;4.93;3.10;;;30.00;54.10;;;;;;5064684;28;20055;-84
2022/06/01 11:17:49;;;;;;;7.03;3.15;;;30.10;53.40;;;;;;5094536;28;20371;-84
2022/06/01 11:20:37;;;;;;;4.22;2.95;;;29.70;54.10;;;;;;5077586;28;20046;-79
2022/06/01 11:23:42;;;;;;;4.15;2.70;;;29.60;55.00;;;;;;5094637;28;20028;-84
2022/06/01 11:26:13;;;;;;;3.80;2.47;;;29.60;54.90;;;;;;5076201;28;20540;-86
2022/06/01 11:29:21;;;;;;;4.60;2.42;;;29.80;54.50;;;;;;5075984;28;20039;-80
2022/06/01 11:31:52;;;;;;;4.65;2.70;;;30.00;52.20;;;;;;5093760;28;20023;-81
2022/06/01 11:34:40;;;;;;;3.95;2.65;;;30.20;53.50;;;;;;5094009;28;20023;-82
2022/06/01 11:37:34;;;;;;;3.75;2.40;;;30.50;53.10;;;;;;5075564;28;20064;-79
2022/06/01 11:40:23;;;;;;;6.13;2.45;;;30.60;52.10;;;;;;5065213;28;20199;-83
2022/06/01 11:42:56;;;;;;;4.43;2.20;;;30.20;52.80;;;;;;5075770;28;20114;-82
2022/06/01 11:45:34;;;;;;;3.95;2.38;;;30.00;54.10;;;;;;5093308;28;20038;-84
2022/06/01 11:48:07;;;;;;;3.65;2.35;;;30.40;54.80;;;;;;5093836;28;20111;-79
2022/06/01 11:50:33;;;;;;;6.03;2.20;;;30.80;52.90;;;;;;5095145;28;20024;-82
2022/06/01 11:52:58;;;;;;;3.83;2.10;;;30.50;52.20;;;;;;5077175;28;20024;-89
2022/06/01 11:55:37;;;;;;;4.03;2.30;;;30.20;53.20;;;;;;5076090;28;20031;-85
2022/06/01 11:58:10;;;;;;;3.55;2.50;;;30.40;52.60;;;;;;5075715;28;20032;-87
2022/06/01 12:00:54;;;;;;;5.53;2.17;;;30.70;53.00;;;;;;5093512;28;20024;-86
2022/06/01 12:03:19;;;;;;;4.32;2.25;;;31.10;52.20;;;;;;5075397;28;20052;-83
2022/06/01 12:06:12;;;;;;;5.20;2.47;;;31.10;51.80;;;;;;5093727;28;20059;-78
2022/06/01 12:09:01;;;;;;;4.68;2.15;;;31.40;52.60;;;;;;5093239;28;20103;-81
2022/06/01 12:11:39;;;;;;;3.75;2.50;;;31.60;52.20;;;;;;5093597;28;20068;-91
2022/06/01 12:14:36;;;;;;;3.40;2.20;;;31.40;52.20;;;;;;5093618;28;20016;-77
2022/06/01 12:17:17;;;;;;;3.60;2.20;;;31.30;50.50;;;;;;5075342;28;20531;-91
2022/06/01 12:20:14;;;;;;;3.30;2.10;;;31.00;51.30;;;;;;5093285;28;20094;-82
2022/06/01 12:28:51;;;;;;;4.65;2.30;;;30.20;51.30;;;;;;4915028;29;20102;-79
2022/06/01 12:31:47;;;;;;;5.07;2.10;;;30.10;50.50;;;;;;4899043;29;20035;-85
2022/06/01 12:34:20;;;;;;;2.83;1.92;;;30.60;52.60;;;;;;4910735;29;20048;-84
2022/06/01 12:37:09;;;;;;;4.20;2.15;;;30.40;50.40;;;;;;4899478;29;20036;-80
2022/06/01 12:39:40;;;;;;;3.85;2.00;;;29.90;50.70;;;;;;4914693;29;20099;-81
2022/06/01 12:42:19;;;;;;;3.47;1.90;;;30.10;51.00;;;;;;4914741;29;20577;-88
2022/06/01 12:44:51;;;;;;;6.22;2.10;;;30.50;51.80;;;;;;4915104;29;20032;-85
2022/06/01 12:47:33;;;;;;;3.53;2.10;;;30.60;52.10;;;;;;4899552;29;20131;-76
2022/06/01 12:50:27;;;;;;;3.20;2.10;;;30.40;51.80;;;;;;4898718;29;20040;-79
2022/06/01 12:53:11;;;;;;;3.47;2.10;;;30.60;51.70;;;;;;4914711;29;20473;-81
2022/06/01 12:55:37;;;;;;;5.32;2.13;;;30.90;51.70;;;;;;4898803;29;20523;-79
2022/06/01 12:58:12;;;;;;;3.65;2.13;;;31.00;52.30;;;;;;4899606;29;20039;-82
2022/06/01 13:01:02;;;;;;;3.03;1.90;;;31.10;51.90;;;;;;4965048;28;20042;-78
2022/06/01 13:03:29;;;;;;;;;;;31.00;52.30;;;;;;5072783;28;20425;-88
2022/06/01 13:05:58;;;;;;;4.38;1.90;;;30.90;50.70;;;;;;5093725;28;19904;-82
2022/06/01 13:08:26;;;;;;;3.53;2.00;;;30.80;51.10;;;;;;5093101;28;20024;-78
2022/06/01 13:10:53;;;;;;;3.53;1.80;;;30.50;49.80;;;;;;5076464;28;20500;-80
2022/06/01 13:13:28;;;;;;;3.25;1.98;;;30.80;50.80;;;;;;5093627;28;20027;-88
2022/06/01 13:16:04;;;;;;;4.88;2.20;;;30.60;49.30;;;;;;5092685;28;20384;-80
2022/06/01 13:18:41;;;;;;;3.30;2.00;;;30.50;49.20;;;;;;5074488;28;20028;-81
2022/06/01 13:21:23;;;;;;;3.42;1.90;;;30.60;49.40;;;;;;5074894;28;20021;-80
2022/06/01 13:24:06;;;;;;;2.80;1.63;;;30.40;50.70;;;;;;5092453;28;20016;-85
2022/06/01 13:26:40;;;;;;;2.85;1.80;;;30.70;49.10;;;;;;5096077;28;20026;-79
2022/06/01 13:29:27;;;;;;;3.20;1.85;;;30.90;49.90;;;;;;5078289;28;20024;-80
2022/06/01 13:31:57;;;;;;;3.65;2.05;;;31.20;49.00;;;;;;5096331;28;20044;-84
2022/06/01 13:34:39;;;;;;;3.25;1.90;;;31.40;48.90;;;;;;5078192;28;20024;-83
2022/06/01 13:37:17;;;;;;;4.18;1.83;;;31.20;49.30;;;;;;5098601;28;20111;-82
2022/06/01 13:40:06;;;;;;;3.40;2.00;;;31.40;49.20;;;;;;5077922;28;20052;-81
2022/06/01 13:42:34;;;;;;;4.03;1.90;;;31.70;49.50;;;;;;5097167;28;20492;-80
2022/06/01 13:45:11;;;;;;;3.95;1.90;;;31.80;48.60;;;;;;5096370;28;20035;-84
2022/06/01 13:47:40;;;;;;;4.30;1.85;;;31.90;47.30;;;;;;5078191;28;20051;-82
2022/06/01 13:50:15;;;;;;;4.18;1.70;;;31.60;47.50;;;;;;5077796;28;20027;-80
2022/06/01 13:52:48;;;;;;;2.70;1.70;;;31.60;47.30;;;;;;5095721;28;20073;-82
2022/06/01 13:55:29;;;;;;;4.25;1.73;;;31.50;47.10;;;;;;5095851;28;20025;-80
2022/06/01 13:58:06;;;;;;;3.10;1.70;;;31.20;47.60;;;;;;5095455;28;20435;-81
2022/06/01 14:00:38;;;;;;;3.83;1.88;;;31.20;48.40;;;;;;5096797;28;20036;-84
2022/06/01 14:03:10;;;;;;;3.35;2.00;;;31.20;48.30;;;;;;5079488;28;20028;-81
2022/06/01 14:05:40;;;;;;;3.03;1.85;;;31.20;48.40;;;;;;5096591;28;20645;-80
2022/06/01 14:08:13;;;;;;;3.22;1.80;;;31.40;47.70;;;;;;5096171;28;20475;-87
2022/06/01 14:10:41;;;;;;;4.35;1.80;;;31.30;45.60;;;;;;5078601;28;20402;-81
2022/06/01 14:13:07;;;;;;;3.35;1.70;;;31.50;46.80;;;;;;5095817;28;20051;-79
2022/06/01 14:15:36;;;;;;;2.80;1.70;;;31.30;46.80;;;;;;5095352;28;20173;-78
2022/06/01 14:18:07;;;;;;;2.95;1.90;;;31.40;46.30;;;;;;5096097;28;20034;-83
2022/06/01 14:20:33;;;;;;;3.80;1.80;;;31.60;47.50;;;;;;5096101;28;20127;-83
2022/06/01 14:22:58;;;;;;;3.08;1.70;;;31.50;47.40;;;;;;5095276;28;20122;-80
2022/06/01 14:30:52;;;;;;;4.03;1.90;;;31.40;47.10;;;;;;5095769;28;20543;-82
2022/06/01 14:33:18;;;;;;;2.95;1.90;;;31.40;46.40;;;;;;5076958;28;20028;-81
2022/06/01 14:35:44;;;;;;;3.38;1.60;;;31.00;47.00;;;;;;5095088;28;20016;-79